sensor_id;sensor_type;location;lat;lon;timestamp;P1;durP1;ratioP1;P2;durP2;ratioP2
67554;SDS011;54385;53.516;49.456;2024-02-16T00:01:12;2.75;;;1.85;;
67554;SDS011;54385;53.516;49.456;2024-02-16T00:03:39;2.15;;;1.48;;
67554;SDS011;54385;53.516;49.456;2024-02-16T00:06:06;3.42;;;1.88;;
67554;SDS011;54385;53.516;49.456;2024-02-16T00:08:33;2.75;;;1.70;;
67554;SDS011;54385;53.516;49.456;2024-02-16T00:11:00;3.00;;;1.70;;
67554;SDS011;54385;53.516;49.456;2024-02-16T00:13:27;2.65;;;1.75;;
67554;SDS011;54385;53.516;49.456;2024-02-16T00:15:53;2.10;;;1.60;;
67554;SDS011;54385;53.516;49.456;2024-02-16T00:18:20;2.30;;;1.50;;
67554;SDS011;54385;53.516;49.456;2024-02-16T00:20:46;2.53;;;1.52;;
67554;SDS011;54385;53.516;49.456;2024-02-16T00:23:13;3.05;;;1.60;;
67554;SDS011;54385;53.516;49.456;2024-02-16T00:25:40;2.80;;;1.52;;
67554;SDS011;54385;53.516;49.456;2024-02-16T00:28:07;2.22;;;1.33;;
67554;SDS011;54385;53.516;49.456;2024-02-16T00:30:34;2.38;;;1.48;;
67554;SDS011;54385;53.516;49.456;2024-02-16T00:33:03;1.83;;;1.40;;
67554;SDS011;54385;53.516;49.456;2024-02-16T00:35:30;3.00;;;1.75;;
67554;SDS011;54385;53.516;49.456;2024-02-16T00:37:59;1.80;;;1.42;;
67554;SDS011;54385;53.516;49.456;2024-02-16T00:40:26;2.40;;;1.67;;
67554;SDS011;54385;53.516;49.456;2024-02-16T00:42:53;2.38;;;1.67;;
67554;SDS011;54385;53.516;49.456;2024-02-16T00:45:19;2.97;;;1.80;;
67554;SDS011;54385;53.516;49.456;2024-02-16T00:47:46;2.53;;;1.65;;
67554;SDS011;54385;53.516;49.456;2024-02-16T00:50:14;2.33;;;1.50;;
67554;SDS011;54385;53.516;49.456;2024-02-16T00:52:41;2.13;;;1.60;;
67554;SDS011;54385;53.516;49.456;2024-02-16T00:55:10;2.30;;;1.40;;
67554;SDS011;54385;53.516;49.456;2024-02-16T00:57:38;1.90;;;1.33;;
67554;SDS011;54385;53.516;49.456;2024-02-16T01:00:05;2.65;;;1.48;;
67554;SDS011;54385;53.516;49.456;2024-02-16T01:02:33;2.05;;;1.60;;
67554;SDS011;54385;53.516;49.456;2024-02-16T01:05:01;2.00;;;1.50;;
67554;SDS011;54385;53.516;49.456;2024-02-16T01:07:28;1.92;;;1.40;;
67554;SDS011;54385;53.516;49.456;2024-02-16T01:09:56;2.30;;;1.60;;
67554;SDS011;54385;53.516;49.456;2024-02-16T01:12:23;2.90;;;2.00;;
67554;SDS011;54385;53.516;49.456;2024-02-16T01:14:50;2.10;;;1.40;;
67554;SDS011;54385;53.516;49.456;2024-02-16T01:17:17;2.00;;;1.35;;
67554;SDS011;54385;53.516;49.456;2024-02-16T01:19:43;2.22;;;1.67;;
67554;SDS011;54385;53.516;49.456;2024-02-16T01:22:10;2.13;;;1.40;;
67554;SDS011;54385;53.516;49.456;2024-02-16T01:24:37;2.00;;;1.50;;
67554;SDS011;54385;53.516;49.456;2024-02-16T01:27:03;2.05;;;1.40;;
67554;SDS011;54385;53.516;49.456;2024-02-16T01:29:30;2.25;;;1.50;;
67554;SDS011;54385;53.516;49.456;2024-02-16T01:31:58;2.45;;;1.60;;
67554;SDS011;54385;53.516;49.456;2024-02-16T01:34:28;2.42;;;1.60;;
67554;SDS011;54385;53.516;49.456;2024-02-16T01:36:57;2.35;;;1.60;;
67554;SDS011;54385;53.516;49.456;2024-02-16T01:39:39;1.92;;;1.25;;
67554;SDS011;54385;53.516;49.456;2024-02-16T01:42:07;2.28;;;1.30;;
67554;SDS011;54385;53.516;49.456;2024-02-16T01:44:33;1.95;;;1.15;;
67554;SDS011;54385;53.516;49.456;2024-02-16T01:47:00;1.80;;;1.25;;
67554;SDS011;54385;53.516;49.456;2024-02-16T01:49:30;1.80;;;1.30;;
67554;SDS011;54385;53.516;49.456;2024-02-16T01:51:57;2.35;;;1.50;;
67554;SDS011;54385;53.516;49.456;2024-02-16T01:54:23;2.00;;;1.40;;
67554;SDS011;54385;53.516;49.456;2024-02-16T01:56:50;1.90;;;1.40;;
67554;SDS011;54385;53.516;49.456;2024-02-16T01:59:17;1.52;;;1.20;;
67554;SDS011;54385;53.516;49.456;2024-02-16T02:01:44;2.00;;;1.20;;
67554;SDS011;54385;53.516;49.456;2024-02-16T02:04:20;2.15;;;1.40;;
67554;SDS011;54385;53.516;49.456;2024-02-16T02:06:47;3.33;;;1.50;;
67554;SDS011;54385;53.516;49.456;2024-02-16T02:09:21;2.20;;;1.40;;
67554;SDS011;54385;53.516;49.456;2024-02-16T02:11:48;1.65;;;1.23;;
67554;SDS011;54385;53.516;49.456;2024-02-16T02:14:22;2.42;;;1.58;;
67554;SDS011;54385;53.516;49.456;2024-02-16T02:16:55;2.10;;;1.40;;
67554;SDS011;54385;53.516;49.456;2024-02-16T02:19:22;1.95;;;1.40;;
67554;SDS011;54385;53.516;49.456;2024-02-16T02:21:48;1.52;;;1.23;;
67554;SDS011;54385;53.516;49.456;2024-02-16T02:24:16;1.83;;;1.40;;
67554;SDS011;54385;53.516;49.456;2024-02-16T02:26:42;2.22;;;1.60;;
67554;SDS011;54385;53.516;49.456;2024-02-16T02:29:09;1.75;;;1.17;;
67554;SDS011;54385;53.516;49.456;2024-02-16T02:31:36;2.45;;;1.48;;
67554;SDS011;54385;53.516;49.456;2024-02-16T02:34:05;2.55;;;1.35;;
67554;SDS011;54385;53.516;49.456;2024-02-16T02:36:43;1.80;;;1.27;;
67554;SDS011;54385;53.516;49.456;2024-02-16T02:39:10;1.77;;;1.20;;
67554;SDS011;54385;53.516;49.456;2024-02-16T02:41:39;1.85;;;1.10;;
67554;SDS011;54385;53.516;49.456;2024-02-16T02:44:05;2.85;;;1.70;;
67554;SDS011;54385;53.516;49.456;2024-02-16T02:46:32;2.10;;;1.58;;
67554;SDS011;54385;53.516;49.456;2024-02-16T02:49:00;3.13;;;1.48;;
67554;SDS011;54385;53.516;49.456;2024-02-16T02:51:28;2.08;;;1.45;;
67554;SDS011;54385;53.516;49.456;2024-02-16T02:53:55;2.80;;;1.42;;
67554;SDS011;54385;53.516;49.456;2024-02-16T02:56:22;3.63;;;1.42;;
67554;SDS011;54385;53.516;49.456;2024-02-16T02:58:48;1.98;;;1.40;;
67554;SDS011;54385;53.516;49.456;2024-02-16T03:01:22;1.80;;;1.42;;
67554;SDS011;54385;53.516;49.456;2024-02-16T03:03:51;2.45;;;1.50;;
67554;SDS011;54385;53.516;49.456;2024-02-16T03:06:23;2.47;;;1.48;;
67554;SDS011;54385;53.516;49.456;2024-02-16T03:08:56;2.00;;;1.50;;
67554;SDS011;54385;53.516;49.456;2024-02-16T03:11:23;1.52;;;1.23;;
67554;SDS011;54385;53.516;49.456;2024-02-16T03:13:49;2.55;;;1.55;;
67554;SDS011;54385;53.516;49.456;2024-02-16T03:16:16;5.32;;;1.75;;
67554;SDS011;54385;53.516;49.456;2024-02-16T03:18:43;2.08;;;1.60;;
67554;SDS011;54385;53.516;49.456;2024-02-16T03:21:12;2.63;;;2.00;;
67554;SDS011;54385;53.516;49.456;2024-02-16T03:26:19;2.35;;;1.65;;
67554;SDS011;54385;53.516;49.456;2024-02-16T03:28:47;3.60;;;1.95;;
67554;SDS011;54385;53.516;49.456;2024-02-16T03:31:17;2.25;;;1.77;;
67554;SDS011;54385;53.516;49.456;2024-02-16T03:33:46;2.70;;;2.05;;
67554;SDS011;54385;53.516;49.456;2024-02-16T03:36:16;3.45;;;2.20;;
67554;SDS011;54385;53.516;49.456;2024-02-16T03:38:48;2.55;;;1.85;;
67554;SDS011;54385;53.516;49.456;2024-02-16T03:41:18;2.90;;;1.98;;
67554;SDS011;54385;53.516;49.456;2024-02-16T03:43:47;2.80;;;1.98;;
67554;SDS011;54385;53.516;49.456;2024-02-16T03:46:13;3.78;;;2.05;;
67554;SDS011;54385;53.516;49.456;2024-02-16T03:48:40;2.75;;;1.80;;
67554;SDS011;54385;53.516;49.456;2024-02-16T03:51:08;2.78;;;2.15;;
67554;SDS011;54385;53.516;49.456;2024-02-16T03:53:35;2.97;;;2.10;;
67554;SDS011;54385;53.516;49.456;2024-02-16T03:56:05;2.92;;;2.13;;
67554;SDS011;54385;53.516;49.456;2024-02-16T03:58:31;5.57;;;2.80;;
67554;SDS011;54385;53.516;49.456;2024-02-16T04:01:01;4.65;;;2.63;;
67554;SDS011;54385;53.516;49.456;2024-02-16T04:03:33;3.38;;;2.40;;
67554;SDS011;54385;53.516;49.456;2024-02-16T04:06:00;4.88;;;2.60;;
67554;SDS011;54385;53.516;49.456;2024-02-16T04:08:29;4.10;;;2.70;;
67554;SDS011;54385;53.516;49.456;2024-02-16T04:10:58;6.15;;;2.90;;
67554;SDS011;54385;53.516;49.456;2024-02-16T04:13:28;5.65;;;2.95;;
67554;SDS011;54385;53.516;49.456;2024-02-16T04:15:55;14.13;;;5.13;;
67554;SDS011;54385;53.516;49.456;2024-02-16T04:18:21;121.97;;;33.85;;
67554;SDS011;54385;53.516;49.456;2024-02-16T04:20:48;107.35;;;31.98;;
67554;SDS011;54385;53.516;49.456;2024-02-16T04:23:14;98.38;;;28.60;;
67554;SDS011;54385;53.516;49.456;2024-02-16T04:25:41;87.53;;;25.58;;
67554;SDS011;54385;53.516;49.456;2024-02-16T04:28:08;83.45;;;23.05;;
67554;SDS011;54385;53.516;49.456;2024-02-16T04:30:44;82.05;;;25.00;;
67554;SDS011;54385;53.516;49.456;2024-02-16T04:33:11;76.05;;;23.60;;
67554;SDS011;54385;53.516;49.456;2024-02-16T04:35:41;77.05;;;23.20;;
67554;SDS011;54385;53.516;49.456;2024-02-16T04:38:18;89.55;;;27.30;;
67554;SDS011;54385;53.516;49.456;2024-02-16T04:41:10;87.95;;;29.13;;
67554;SDS011;54385;53.516;49.456;2024-02-16T04:43:40;73.88;;;25.38;;
67554;SDS011;54385;53.516;49.456;2024-02-16T04:46:06;82.00;;;28.45;;
67554;SDS011;54385;53.516;49.456;2024-02-16T04:48:40;65.82;;;24.75;;
67554;SDS011;54385;53.516;49.456;2024-02-16T04:51:16;55.92;;;21.00;;
67554;SDS011;54385;53.516;49.456;2024-02-16T04:53:43;49.50;;;19.67;;
67554;SDS011;54385;53.516;49.456;2024-02-16T04:56:10;49.05;;;17.00;;
67554;SDS011;54385;53.516;49.456;2024-02-16T04:58:41;39.65;;;14.27;;
67554;SDS011;54385;53.516;49.456;2024-02-16T05:01:08;38.92;;;13.63;;
67554;SDS011;54385;53.516;49.456;2024-02-16T05:03:36;38.03;;;13.02;;
67554;SDS011;54385;53.516;49.456;2024-02-16T05:06:26;31.42;;;11.98;;
67554;SDS011;54385;53.516;49.456;2024-02-16T05:09:14;26.80;;;10.60;;
67554;SDS011;54385;53.516;49.456;2024-02-16T05:12:02;38.55;;;16.45;;
67554;SDS011;54385;53.516;49.456;2024-02-16T05:14:28;28.48;;;12.77;;
67554;SDS011;54385;53.516;49.456;2024-02-16T05:16:55;27.40;;;12.32;;
67554;SDS011;54385;53.516;49.456;2024-02-16T05:19:22;28.27;;;11.98;;
67554;SDS011;54385;53.516;49.456;2024-02-16T05:21:49;47.03;;;18.63;;
67554;SDS011;54385;53.516;49.456;2024-02-16T05:24:15;38.50;;;16.63;;
67554;SDS011;54385;53.516;49.456;2024-02-16T05:26:43;43.67;;;16.15;;
67554;SDS011;54385;53.516;49.456;2024-02-16T05:29:11;64.25;;;21.88;;
67554;SDS011;54385;53.516;49.456;2024-02-16T05:31:44;55.58;;;20.20;;
67554;SDS011;54385;53.516;49.456;2024-02-16T05:34:11;57.47;;;20.85;;
67554;SDS011;54385;53.516;49.456;2024-02-16T05:36:59;53.08;;;19.05;;
67554;SDS011;54385;53.516;49.456;2024-02-16T05:39:27;42.13;;;15.52;;
67554;SDS011;54385;53.516;49.456;2024-02-16T05:42:02;37.10;;;13.48;;
67554;SDS011;54385;53.516;49.456;2024-02-16T05:44:40;30.27;;;11.65;;
67554;SDS011;54385;53.516;49.456;2024-02-16T05:47:35;29.23;;;10.23;;
67554;SDS011;54385;53.516;49.456;2024-02-16T05:50:05;24.60;;;9.50;;
67554;SDS011;54385;53.516;49.456;2024-02-16T05:52:33;21.08;;;9.02;;
67554;SDS011;54385;53.516;49.456;2024-02-16T05:55:00;19.52;;;8.38;;
67554;SDS011;54385;53.516;49.456;2024-02-16T05:57:27;18.80;;;7.82;;
67554;SDS011;54385;53.516;49.456;2024-02-16T05:59:54;16.27;;;7.70;;
67554;SDS011;54385;53.516;49.456;2024-02-16T06:02:41;14.52;;;7.28;;
67554;SDS011;54385;53.516;49.456;2024-02-16T06:05:24;13.85;;;6.93;;
67554;SDS011;54385;53.516;49.456;2024-02-16T06:08:03;16.17;;;7.00;;
67554;SDS011;54385;53.516;49.456;2024-02-16T06:10:30;12.93;;;6.55;;
67554;SDS011;54385;53.516;49.456;2024-02-16T06:13:01;11.75;;;6.35;;
67554;SDS011;54385;53.516;49.456;2024-02-16T06:15:33;12.13;;;5.97;;
67554;SDS011;54385;53.516;49.456;2024-02-16T06:18:05;9.85;;;5.35;;
67554;SDS011;54385;53.516;49.456;2024-02-16T06:20:32;11.00;;;6.43;;
67554;SDS011;54385;53.516;49.456;2024-02-16T06:23:09;12.07;;;5.82;;
67554;SDS011;54385;53.516;49.456;2024-02-16T06:28:15;10.57;;;5.78;;
67554;SDS011;54385;53.516;49.456;2024-02-16T06:30:42;9.13;;;6.28;;
67554;SDS011;54385;53.516;49.456;2024-02-16T06:33:09;10.80;;;5.90;;
67554;SDS011;54385;53.516;49.456;2024-02-16T06:35:36;10.77;;;6.10;;
67554;SDS011;54385;53.516;49.456;2024-02-16T06:38:03;9.23;;;5.68;;
67554;SDS011;54385;53.516;49.456;2024-02-16T06:40:29;10.05;;;5.78;;
67554;SDS011;54385;53.516;49.456;2024-02-16T06:42:58;9.73;;;5.95;;
67554;SDS011;54385;53.516;49.456;2024-02-16T06:45:25;11.02;;;5.60;;
67554;SDS011;54385;53.516;49.456;2024-02-16T06:48:02;8.57;;;5.32;;
67554;SDS011;54385;53.516;49.456;2024-02-16T06:50:29;9.27;;;5.55;;
67554;SDS011;54385;53.516;49.456;2024-02-16T06:53:03;9.95;;;5.45;;
67554;SDS011;54385;53.516;49.456;2024-02-16T06:55:32;11.02;;;5.85;;
67554;SDS011;54385;53.516;49.456;2024-02-16T06:57:59;9.80;;;6.05;;
67554;SDS011;54385;53.516;49.456;2024-02-16T07:00:34;10.52;;;5.38;;
67554;SDS011;54385;53.516;49.456;2024-02-16T07:03:18;10.27;;;5.55;;
67554;SDS011;54385;53.516;49.456;2024-02-16T07:06:12;8.38;;;5.53;;
67554;SDS011;54385;53.516;49.456;2024-02-16T07:09:03;9.35;;;5.50;;
67554;SDS011;54385;53.516;49.456;2024-02-16T07:11:49;9.75;;;5.47;;
67554;SDS011;54385;53.516;49.456;2024-02-16T07:14:55;7.93;;;5.15;;
67554;SDS011;54385;53.516;49.456;2024-02-16T07:17:29;9.45;;;5.57;;
67554;SDS011;54385;53.516;49.456;2024-02-16T07:20:13;9.18;;;5.35;;
67554;SDS011;54385;53.516;49.456;2024-02-16T07:22:47;7.07;;;5.00;;
67554;SDS011;54385;53.516;49.456;2024-02-16T07:25:16;7.22;;;5.25;;
67554;SDS011;54385;53.516;49.456;2024-02-16T07:27:43;8.95;;;5.15;;
67554;SDS011;54385;53.516;49.456;2024-02-16T07:30:16;8.48;;;5.85;;
67554;SDS011;54385;53.516;49.456;2024-02-16T07:32:47;7.13;;;5.45;;
67554;SDS011;54385;53.516;49.456;2024-02-16T07:35:16;7.53;;;5.43;;
67554;SDS011;54385;53.516;49.456;2024-02-16T07:37:45;8.05;;;5.35;;
67554;SDS011;54385;53.516;49.456;2024-02-16T07:40:23;8.00;;;5.45;;
67554;SDS011;54385;53.516;49.456;2024-02-16T07:42:49;7.85;;;5.20;;
67554;SDS011;54385;53.516;49.456;2024-02-16T07:45:42;8.65;;;5.15;;
67554;SDS011;54385;53.516;49.456;2024-02-16T07:48:10;7.97;;;5.10;;
67554;SDS011;54385;53.516;49.456;2024-02-16T07:50:40;9.73;;;4.93;;
67554;SDS011;54385;53.516;49.456;2024-02-16T07:53:10;8.60;;;5.45;;
67554;SDS011;54385;53.516;49.456;2024-02-16T07:55:56;7.20;;;5.00;;
67554;SDS011;54385;53.516;49.456;2024-02-16T07:58:31;7.65;;;4.97;;
67554;SDS011;54385;53.516;49.456;2024-02-16T08:01:08;7.45;;;4.45;;
67554;SDS011;54385;53.516;49.456;2024-02-16T08:03:49;6.57;;;4.57;;
67554;SDS011;54385;53.516;49.456;2024-02-16T08:06:40;6.45;;;4.40;;
67554;SDS011;54385;53.516;49.456;2024-02-16T08:09:10;6.05;;;4.35;;
67554;SDS011;54385;53.516;49.456;2024-02-16T08:11:37;7.95;;;4.25;;
67554;SDS011;54385;53.516;49.456;2024-02-16T08:14:04;7.97;;;4.55;;
67554;SDS011;54385;53.516;49.456;2024-02-16T08:16:31;5.70;;;4.65;;
67554;SDS011;54385;53.516;49.456;2024-02-16T08:18:59;6.00;;;4.35;;
67554;SDS011;54385;53.516;49.456;2024-02-16T08:21:29;5.80;;;4.53;;
67554;SDS011;54385;53.516;49.456;2024-02-16T08:26:36;5.45;;;3.92;;
67554;SDS011;54385;53.516;49.456;2024-02-16T08:29:03;5.05;;;3.40;;
67554;SDS011;54385;53.516;49.456;2024-02-16T08:31:30;6.75;;;3.95;;
67554;SDS011;54385;53.516;49.456;2024-02-16T08:33:56;5.57;;;3.80;;
67554;SDS011;54385;53.516;49.456;2024-02-16T08:36:25;5.30;;;3.63;;
67554;SDS011;54385;53.516;49.456;2024-02-16T08:38:55;6.70;;;3.47;;
67554;SDS011;54385;53.516;49.456;2024-02-16T08:41:44;5.38;;;3.53;;
67554;SDS011;54385;53.516;49.456;2024-02-16T08:44:18;5.05;;;3.47;;
67554;SDS011;54385;53.516;49.456;2024-02-16T08:46:47;28.55;;;9.18;;
67554;SDS011;54385;53.516;49.456;2024-02-16T08:49:18;19.35;;;6.80;;
67554;SDS011;54385;53.516;49.456;2024-02-16T08:51:46;19.73;;;7.05;;
67554;SDS011;54385;53.516;49.456;2024-02-16T08:54:14;16.00;;;5.50;;
67554;SDS011;54385;53.516;49.456;2024-02-16T08:56:48;11.10;;;4.85;;
67554;SDS011;54385;53.516;49.456;2024-02-16T08:59:23;8.45;;;4.60;;
67554;SDS011;54385;53.516;49.456;2024-02-16T09:06:03;8.85;;;4.35;;
67554;SDS011;54385;53.516;49.456;2024-02-16T09:08:53;10.70;;;4.32;;
67554;SDS011;54385;53.516;49.456;2024-02-16T09:11:22;9.65;;;4.38;;
67554;SDS011;54385;53.516;49.456;2024-02-16T09:13:52;10.82;;;5.65;;
67554;SDS011;54385;53.516;49.456;2024-02-16T09:16:20;20.27;;;7.85;;
67554;SDS011;54385;53.516;49.456;2024-02-16T09:18:47;31.40;;;10.45;;
67554;SDS011;54385;53.516;49.456;2024-02-16T09:21:17;30.48;;;9.32;;
67554;SDS011;54385;53.516;49.456;2024-02-16T09:23:51;25.00;;;8.57;;
67554;SDS011;54385;53.516;49.456;2024-02-16T09:26:18;21.35;;;8.32;;
67554;SDS011;54385;53.516;49.456;2024-02-16T09:28:48;22.60;;;8.55;;
67554;SDS011;54385;53.516;49.456;2024-02-16T09:31:16;17.08;;;6.97;;
67554;SDS011;54385;53.516;49.456;2024-02-16T09:33:43;14.35;;;6.30;;
67554;SDS011;54385;53.516;49.456;2024-02-16T09:39:29;18.73;;;7.32;;
67554;SDS011;54385;53.516;49.456;2024-02-16T09:50:46;13.13;;;5.75;;
67554;SDS011;54385;53.516;49.456;2024-02-16T09:53:29;13.57;;;5.60;;
67554;SDS011;54385;53.516;49.456;2024-02-16T09:55:59;16.33;;;6.15;;
67554;SDS011;54385;53.516;49.456;2024-02-16T09:58:27;13.65;;;5.57;;
67554;SDS011;54385;53.516;49.456;2024-02-16T10:00:54;15.82;;;5.55;;
67554;SDS011;54385;53.516;49.456;2024-02-16T10:03:26;8.52;;;5.28;;
67554;SDS011;54385;53.516;49.456;2024-02-16T10:06:07;11.48;;;4.95;;
67554;SDS011;54385;53.516;49.456;2024-02-16T10:08:46;10.45;;;5.43;;
67554;SDS011;54385;53.516;49.456;2024-02-16T10:11:18;14.43;;;5.30;;
67554;SDS011;54385;53.516;49.456;2024-02-16T10:14:00;13.15;;;5.45;;
67554;SDS011;54385;53.516;49.456;2024-02-16T10:16:31;11.40;;;5.68;;
67554;SDS011;54385;53.516;49.456;2024-02-16T10:19:29;10.57;;;5.15;;
67554;SDS011;54385;53.516;49.456;2024-02-16T10:22:19;12.60;;;4.95;;
67554;SDS011;54385;53.516;49.456;2024-02-16T10:24:46;9.88;;;4.70;;
67554;SDS011;54385;53.516;49.456;2024-02-16T10:27:18;13.50;;;5.32;;
67554;SDS011;54385;53.516;49.456;2024-02-16T10:29:47;10.20;;;4.28;;
67554;SDS011;54385;53.516;49.456;2024-02-16T10:32:19;11.52;;;4.78;;
67554;SDS011;54385;53.516;49.456;2024-02-16T10:34:46;12.50;;;4.90;;
67554;SDS011;54385;53.516;49.456;2024-02-16T10:37:17;9.07;;;4.72;;
67554;SDS011;54385;53.516;49.456;2024-02-16T10:39:44;11.90;;;5.30;;
67554;SDS011;54385;53.516;49.456;2024-02-16T10:42:11;11.35;;;4.68;;
67554;SDS011;54385;53.516;49.456;2024-02-16T10:44:49;7.13;;;4.03;;
67554;SDS011;54385;53.516;49.456;2024-02-16T10:47:20;8.15;;;4.43;;
67554;SDS011;54385;53.516;49.456;2024-02-16T10:50:33;8.18;;;4.22;;
67554;SDS011;54385;53.516;49.456;2024-02-16T10:53:08;9.77;;;4.35;;
67554;SDS011;54385;53.516;49.456;2024-02-16T10:55:35;10.75;;;4.93;;
67554;SDS011;54385;53.516;49.456;2024-02-16T10:58:02;10.00;;;5.25;;
67554;SDS011;54385;53.516;49.456;2024-02-16T11:00:48;8.20;;;4.28;;
67554;SDS011;54385;53.516;49.456;2024-02-16T11:03:21;7.38;;;3.67;;
67554;SDS011;54385;53.516;49.456;2024-02-16T11:05:57;9.40;;;4.53;;
67554;SDS011;54385;53.516;49.456;2024-02-16T11:08:30;8.10;;;4.53;;
67554;SDS011;54385;53.516;49.456;2024-02-16T11:11:38;7.75;;;3.85;;
67554;SDS011;54385;53.516;49.456;2024-02-16T11:14:20;10.73;;;4.55;;
67554;SDS011;54385;53.516;49.456;2024-02-16T11:16:59;7.75;;;4.03;;
67554;SDS011;54385;53.516;49.456;2024-02-16T11:19:36;9.50;;;4.00;;
67554;SDS011;54385;53.516;49.456;2024-02-16T11:22:06;7.18;;;3.80;;
67554;SDS011;54385;53.516;49.456;2024-02-16T11:24:38;9.23;;;4.00;;
67554;SDS011;54385;53.516;49.456;2024-02-16T11:27:10;6.32;;;3.95;;
67554;SDS011;54385;53.516;49.456;2024-02-16T11:29:45;9.07;;;4.15;;
67554;SDS011;54385;53.516;49.456;2024-02-16T11:32:13;7.95;;;3.92;;
67554;SDS011;54385;53.516;49.456;2024-02-16T11:34:42;6.53;;;4.00;;
67554;SDS011;54385;53.516;49.456;2024-02-16T11:37:16;7.78;;;4.25;;
67554;SDS011;54385;53.516;49.456;2024-02-16T11:39:46;6.45;;;3.85;;
67554;SDS011;54385;53.516;49.456;2024-02-16T11:42:13;6.53;;;4.05;;
67554;SDS011;54385;53.516;49.456;2024-02-16T11:45:21;6.57;;;3.80;;
67554;SDS011;54385;53.516;49.456;2024-02-16T11:48:05;7.70;;;4.30;;
67554;SDS011;54385;53.516;49.456;2024-02-16T11:50:41;6.28;;;3.88;;
67554;SDS011;54385;53.516;49.456;2024-02-16T11:53:14;5.28;;;3.33;;
67554;SDS011;54385;53.516;49.456;2024-02-16T11:55:46;7.50;;;4.30;;
67554;SDS011;54385;53.516;49.456;2024-02-16T11:58:19;7.10;;;3.63;;
67554;SDS011;54385;53.516;49.456;2024-02-16T12:00:51;5.88;;;3.70;;
67554;SDS011;54385;53.516;49.456;2024-02-16T12:03:18;7.60;;;3.97;;
67554;SDS011;54385;53.516;49.456;2024-02-16T12:06:04;5.95;;;3.28;;
67554;SDS011;54385;53.516;49.456;2024-02-16T12:08:35;5.85;;;3.13;;
67554;SDS011;54385;53.516;49.456;2024-02-16T12:11:19;8.18;;;4.13;;
67554;SDS011;54385;53.516;49.456;2024-02-16T12:13:49;6.85;;;3.97;;
67554;SDS011;54385;53.516;49.456;2024-02-16T12:16:18;6.57;;;3.85;;
67554;SDS011;54385;53.516;49.456;2024-02-16T12:19:04;5.88;;;3.70;;
67554;SDS011;54385;53.516;49.456;2024-02-16T12:21:34;7.05;;;3.47;;
67554;SDS011;54385;53.516;49.456;2024-02-16T12:24:04;7.20;;;3.33;;
67554;SDS011;54385;53.516;49.456;2024-02-16T12:26:39;5.78;;;3.28;;
67554;SDS011;54385;53.516;49.456;2024-02-16T12:29:09;7.35;;;4.03;;
67554;SDS011;54385;53.516;49.456;2024-02-16T12:31:44;6.47;;;3.78;;
67554;SDS011;54385;53.516;49.456;2024-02-16T12:34:23;5.05;;;3.63;;
67554;SDS011;54385;53.516;49.456;2024-02-16T12:36:51;6.00;;;3.72;;
67554;SDS011;54385;53.516;49.456;2024-02-16T12:39:18;6.82;;;3.53;;
67554;SDS011;54385;53.516;49.456;2024-02-16T12:41:52;5.80;;;3.45;;
67554;SDS011;54385;53.516;49.456;2024-02-16T12:44:20;6.95;;;3.55;;
67554;SDS011;54385;53.516;49.456;2024-02-16T12:46:50;6.10;;;3.53;;
67554;SDS011;54385;53.516;49.456;2024-02-16T12:49:17;5.95;;;3.58;;
67554;SDS011;54385;53.516;49.456;2024-02-16T12:51:51;5.40;;;3.40;;
67554;SDS011;54385;53.516;49.456;2024-02-16T12:54:18;6.10;;;3.22;;
67554;SDS011;54385;53.516;49.456;2024-02-16T12:56:52;5.93;;;3.60;;
67554;SDS011;54385;53.516;49.456;2024-02-16T12:59:19;5.95;;;3.20;;
67554;SDS011;54385;53.516;49.456;2024-02-16T13:01:46;5.10;;;3.42;;
67554;SDS011;54385;53.516;49.456;2024-02-16T13:04:13;5.70;;;3.35;;
67554;SDS011;54385;53.516;49.456;2024-02-16T13:06:47;6.90;;;3.40;;
67554;SDS011;54385;53.516;49.456;2024-02-16T13:09:15;5.53;;;3.30;;
67554;SDS011;54385;53.516;49.456;2024-02-16T13:11:44;4.70;;;3.17;;
67554;SDS011;54385;53.516;49.456;2024-02-16T13:14:14;5.93;;;3.83;;
67554;SDS011;54385;53.516;49.456;2024-02-16T13:16:43;5.88;;;3.63;;
67554;SDS011;54385;53.516;49.456;2024-02-16T13:19:10;6.07;;;3.85;;
67554;SDS011;54385;53.516;49.456;2024-02-16T13:21:37;5.65;;;3.05;;
67554;SDS011;54385;53.516;49.456;2024-02-16T13:24:05;5.00;;;3.17;;
67554;SDS011;54385;53.516;49.456;2024-02-16T13:26:32;5.40;;;3.15;;
67554;SDS011;54385;53.516;49.456;2024-02-16T13:29:01;5.22;;;3.33;;
67554;SDS011;54385;53.516;49.456;2024-02-16T13:31:33;4.90;;;3.30;;
67554;SDS011;54385;53.516;49.456;2024-02-16T13:34:03;5.13;;;3.28;;
67554;SDS011;54385;53.516;49.456;2024-02-16T13:36:29;5.28;;;3.30;;
67554;SDS011;54385;53.516;49.456;2024-02-16T13:39:00;4.65;;;3.22;;
67554;SDS011;54385;53.516;49.456;2024-02-16T13:41:27;5.45;;;3.20;;
67554;SDS011;54385;53.516;49.456;2024-02-16T13:43:58;5.43;;;3.53;;
67554;SDS011;54385;53.516;49.456;2024-02-16T13:46:25;4.05;;;3.05;;
67554;SDS011;54385;53.516;49.456;2024-02-16T13:48:52;6.25;;;3.80;;
67554;SDS011;54385;53.516;49.456;2024-02-16T13:51:19;5.30;;;3.17;;
67554;SDS011;54385;53.516;49.456;2024-02-16T13:53:45;6.25;;;3.28;;
67554;SDS011;54385;53.516;49.456;2024-02-16T13:56:12;4.53;;;3.40;;
67554;SDS011;54385;53.516;49.456;2024-02-16T13:58:42;4.63;;;2.95;;
67554;SDS011;54385;53.516;49.456;2024-02-16T14:03:39;4.95;;;3.72;;
67554;SDS011;54385;53.516;49.456;2024-02-16T14:06:06;5.45;;;3.60;;
67554;SDS011;54385;53.516;49.456;2024-02-16T14:08:39;5.60;;;3.10;;
67554;SDS011;54385;53.516;49.456;2024-02-16T14:11:06;5.32;;;3.20;;
67554;SDS011;54385;53.516;49.456;2024-02-16T14:13:34;4.75;;;3.13;;
67554;SDS011;54385;53.516;49.456;2024-02-16T14:18:55;4.60;;;3.03;;
67554;SDS011;54385;53.516;49.456;2024-02-16T14:21:22;3.95;;;3.15;;
67554;SDS011;54385;53.516;49.456;2024-02-16T14:23:52;4.93;;;2.97;;
67554;SDS011;54385;53.516;49.456;2024-02-16T14:26:19;4.53;;;2.95;;
67554;SDS011;54385;53.516;49.456;2024-02-16T14:28:46;5.35;;;3.22;;
67554;SDS011;54385;53.516;49.456;2024-02-16T14:31:20;5.40;;;3.15;;
67554;SDS011;54385;53.516;49.456;2024-02-16T14:33:48;4.88;;;3.25;;
67554;SDS011;54385;53.516;49.456;2024-02-16T14:36:15;4.40;;;3.20;;
67554;SDS011;54385;53.516;49.456;2024-02-16T14:38:42;4.97;;;3.30;;
67554;SDS011;54385;53.516;49.456;2024-02-16T14:41:09;5.05;;;2.80;;
67554;SDS011;54385;53.516;49.456;2024-02-16T14:43:40;4.28;;;3.15;;
67554;SDS011;54385;53.516;49.456;2024-02-16T14:46:10;4.35;;;2.88;;
67554;SDS011;54385;53.516;49.456;2024-02-16T14:48:37;4.47;;;2.78;;
67554;SDS011;54385;53.516;49.456;2024-02-16T14:51:04;4.72;;;2.63;;
67554;SDS011;54385;53.516;49.456;2024-02-16T14:53:31;3.53;;;2.65;;
67554;SDS011;54385;53.516;49.456;2024-02-16T14:56:03;4.63;;;2.67;;
67554;SDS011;54385;53.516;49.456;2024-02-16T14:58:30;4.43;;;3.15;;
67554;SDS011;54385;53.516;49.456;2024-02-16T15:00:57;4.05;;;2.67;;
67554;SDS011;54385;53.516;49.456;2024-02-16T15:03:26;4.13;;;2.83;;
67554;SDS011;54385;53.516;49.456;2024-02-16T15:08:23;4.38;;;2.45;;
67554;SDS011;54385;53.516;49.456;2024-02-16T15:10:50;3.88;;;2.83;;
67554;SDS011;54385;53.516;49.456;2024-02-16T15:13:21;3.80;;;2.80;;
67554;SDS011;54385;53.516;49.456;2024-02-16T15:15:50;4.90;;;2.75;;
67554;SDS011;54385;53.516;49.456;2024-02-16T15:18:17;4.20;;;2.70;;
67554;SDS011;54385;53.516;49.456;2024-02-16T15:20:47;4.72;;;2.80;;
67554;SDS011;54385;53.516;49.456;2024-02-16T15:23:14;3.67;;;2.53;;